createdAt,value
2023-07-11T00:01:27.588Z,101570.47
2023-07-11T00:03:55.152Z,101574.09
2023-07-11T00:06:23.154Z,101563.56
2023-07-11T00:08:50.634Z,101561.94
2023-07-11T00:11:19.722Z,101561.19
2023-07-11T00:13:51.314Z,101555.16
2023-07-11T00:16:20.919Z,101565.06
2023-07-11T00:18:49.876Z,101560.75
2023-07-11T00:21:17.705Z,101553.88
2023-07-11T00:23:45.212Z,101552.25
2023-07-11T00:26:12.950Z,101555.94
2023-07-11T00:28:40.492Z,101556.03
2023-07-11T00:31:08.446Z,101553.53
2023-07-11T00:33:37.901Z,101547.41
2023-07-11T00:36:07.470Z,101550.19
2023-07-11T00:38:35.484Z,101549.41
2023-07-11T00:41:05.154Z,101546.03
2023-07-11T00:43:32.660Z,101545.19
2023-07-11T00:46:11.409Z,101539.06
2023-07-11T00:48:50.247Z,101542.75
2023-07-11T00:51:26.276Z,101537.59
2023-07-11T00:53:55.009Z,101543.09
2023-07-11T00:56:28.175Z,101541.38
2023-07-11T00:58:59.040Z,101547.66
2023-07-11T01:01:28.342Z,101542.50
2023-07-11T01:03:57.137Z,101538.09
2023-07-11T01:06:29.958Z,101539.91
2023-07-11T01:09:01.388Z,101533.78
2023-07-11T01:11:32.768Z,101541.88
2023-07-11T01:14:00.667Z,101541.41
2023-07-11T01:16:29.468Z,101541.59
2023-07-11T01:18:57.052Z,101542.44
2023-07-11T01:21:24.980Z,101542.53
2023-07-11T01:23:54.502Z,101538.16
2023-07-11T01:26:22.077Z,101543.63
2023-07-11T01:28:49.930Z,101539.25
2023-07-11T01:31:17.629Z,101549.16
2023-07-11T01:33:46.574Z,101534.19
2023-07-11T01:36:14.868Z,101534.34
2023-07-11T01:38:43.619Z,101525.56
2023-07-11T01:41:11.269Z,101525.72
2023-07-11T01:43:38.908Z,101522.28
2023-07-11T01:46:07.188Z,101528.63
2023-07-11T01:48:35.030Z,101527.84
2023-07-11T01:51:03.101Z,101517.50
2023-07-11T01:53:30.866Z,101513.22
2023-07-11T01:56:04.644Z,101503.59
2023-07-11T01:58:34.017Z,101503.91
2023-07-11T02:01:01.937Z,101496.06
2023-07-11T02:03:30.004Z,101493.56
2023-07-11T02:05:57.908Z,101485.81
2023-07-11T02:08:26.623Z,101482.47
2023-07-11T02:10:54.601Z,101481.81
2023-07-11T02:13:22.168Z,101477.53
2023-07-11T02:15:50.779Z,101482.16
2023-07-11T02:18:20.456Z,101470.81
2023-07-11T02:20:48.107Z,101471.91
2023-07-11T02:23:17.314Z,101477.38
2023-07-11T02:25:45.187Z,101465.06
2023-07-11T02:28:12.973Z,101465.22
2023-07-11T02:30:42.069Z,101466.31
2023-07-11T02:33:09.621Z,101469.16
2023-07-11T02:35:37.204Z,101467.59
2023-07-11T02:38:04.788Z,101456.06
2023-07-11T02:40:32.517Z,101463.19
2023-07-11T02:43:00.007Z,101456.22
2023-07-11T02:45:27.909Z,101458.94
2023-07-11T02:47:55.573Z,101461.63
2023-07-11T02:50:23.358Z,101454.59
2023-07-11T02:52:51.003Z,101443.16
2023-07-11T02:55:19.368Z,101449.50
2023-07-11T02:57:47.060Z,101439.94
2023-07-11T03:00:15.189Z,101435.63
2023-07-11T03:02:43.035Z,101433.13
2023-07-11T03:05:11.395Z,101428.81
2023-07-11T03:07:39.486Z,101425.28
2023-07-11T03:10:07.783Z,101421.84
2023-07-11T03:12:35.396Z,101421.06
2023-07-11T03:15:04.866Z,101423.72
2023-07-11T03:17:33.262Z,101418.56
2023-07-11T03:20:01.274Z,101405.38
2023-07-11T03:22:29.774Z,101406.41
2023-07-11T03:24:57.326Z,101406.59
2023-07-11T03:27:25.001Z,101400.47
2023-07-11T03:29:52.557Z,101392.69
2023-07-11T03:32:21.335Z,101402.56
2023-07-11T03:34:54.136Z,101398.44
2023-07-11T03:37:27.009Z,101397.72
2023-07-11T03:40:01.297Z,101398.75
2023-07-11T03:42:28.992Z,101397.00
2023-07-11T03:44:57.008Z,101401.47
2023-07-11T03:47:25.503Z,101401.47
2023-07-11T03:49:59.061Z,101396.16
2023-07-11T03:52:27.299Z,101400.69
2023-07-11T03:54:59.103Z,101385.66
2023-07-11T03:57:26.809Z,101392.78
2023-07-11T03:59:54.413Z,101394.59
2023-07-11T04:02:22.089Z,101394.72
2023-07-11T04:04:49.686Z,101389.41
2023-07-11T04:07:17.556Z,101383.28
2023-07-11T04:09:45.289Z,101395.81
2023-07-11T04:12:13.050Z,101385.28
2023-07-11T04:14:40.956Z,101385.34
2023-07-11T04:17:08.846Z,101384.56
2023-07-11T04:19:36.628Z,101376.56
2023-07-11T04:22:04.633Z,101383.72
2023-07-11T04:24:32.181Z,101380.16
2023-07-11T04:26:59.737Z,101378.38
2023-07-11T04:29:27.255Z,101380.03
2023-07-11T04:31:55.172Z,101383.53
2023-07-11T04:34:22.870Z,101376.41
2023-07-11T04:36:50.609Z,101367.56
2023-07-11T04:39:19.331Z,101366.53
2023-07-11T04:41:46.966Z,101365.63
2023-07-11T04:44:15.860Z,101359.28
2023-07-11T04:46:43.768Z,101363.50
2023-07-11T04:49:11.637Z,101359.75
2023-07-11T04:51:39.433Z,101355.59
2023-07-11T04:54:07.259Z,101351.91
2023-07-11T04:56:41.128Z,101339.00
2023-07-11T04:59:09.326Z,101333.41
2023-07-11T05:01:37.359Z,101334.88
2023-07-11T05:04:05.256Z,101333.84
2023-07-11T05:06:32.905Z,101338.84
2023-07-11T05:09:01.622Z,101331.50
2023-07-11T05:11:29.434Z,101328.81
2023-07-11T05:13:57.043Z,101331.88
2023-07-11T05:16:29.682Z,101323.09
2023-07-11T05:18:58.830Z,101331.47
2023-07-11T05:21:28.697Z,101319.47
2023-07-11T05:23:56.892Z,101318.75
2023-07-11T05:26:24.735Z,101311.69
2023-07-11T05:28:52.499Z,101312.56
2023-07-11T05:31:20.367Z,101307.94
2023-07-11T05:33:48.183Z,101300.50
2023-07-11T05:36:26.460Z,101296.53
2023-07-11T05:38:56.038Z,101297.88
2023-07-11T05:41:24.121Z,101301.78
2023-07-11T05:43:51.640Z,101296.06
2023-07-11T05:46:19.795Z,101294.69
2023-07-11T05:48:47.320Z,101291.50
2023-07-11T05:51:16.424Z,101294.56
2023-07-11T05:53:50.144Z,101295.72
2023-07-11T05:56:24.368Z,101288.97
2023-07-11T05:58:54.839Z,101292.88
2023-07-11T06:01:27.939Z,101296.81
2023-07-11T06:04:16.457Z,101281.03
2023-07-11T06:06:44.988Z,101276.06
2023-07-11T06:09:22.646Z,101279.66
2023-07-11T06:11:57.119Z,101282.41
2023-07-11T06:14:30.651Z,101278.03
2023-07-11T06:16:58.489Z,101266.53
2023-07-11T06:19:28.244Z,101271.09
2023-07-11T06:21:56.482Z,101273.06
2023-07-11T06:24:23.989Z,101271.28
2023-07-11T06:26:51.474Z,101269.34
2023-07-11T06:29:19.010Z,101271.00
2023-07-11T06:31:46.814Z,101268.31
2023-07-11T06:34:14.629Z,101268.97
2023-07-11T06:36:42.245Z,101267.75
2023-07-11T06:39:11.745Z,101261.31
2023-07-11T06:41:39.913Z,101263.75
2023-07-11T06:44:09.543Z,101251.78
2023-07-11T06:46:37.156Z,101253.13
2023-07-11T06:49:05.099Z,101254.44
2023-07-11T06:51:32.630Z,101254.75
2023-07-11T06:54:00.150Z,101255.06
2023-07-11T06:56:27.979Z,101248.31
2023-07-11T06:58:55.538Z,101245.88
2023-07-11T07:01:36.271Z,101248.31
2023-07-11T07:04:06.196Z,101245.28
2023-07-11T07:06:34.203Z,101245.16
2023-07-11T07:09:01.894Z,101246.63
2023-07-11T07:11:29.612Z,101239.03
2023-07-11T07:14:05.449Z,101243.59
2023-07-11T07:16:39.882Z,101243.69
2023-07-11T07:19:10.470Z,101236.88
2023-07-11T07:21:38.670Z,101247.81
2023-07-11T07:24:08.720Z,101242.69
2023-07-11T07:26:36.631Z,101238.28
2023-07-11T07:29:04.113Z,101240.59
2023-07-11T07:31:31.696Z,101242.94
2023-07-11T07:33:59.319Z,101240.28
2023-07-11T07:36:26.849Z,101241.78
2023-07-11T07:38:54.362Z,101236.03
2023-07-11T07:41:22.317Z,101240.31
2023-07-11T07:43:49.868Z,101239.06
2023-07-11T07:46:20.760Z,101234.09
2023-07-11T07:48:48.662Z,101232.97
2023-07-11T07:51:20.048Z,101233.56
2023-07-11T07:53:48.020Z,101224.03
2023-07-11T07:56:20.307Z,101222.47
2023-07-11T07:58:49.429Z,101223.59
2023-07-11T08:01:20.545Z,101220.19
2023-07-11T08:03:48.091Z,101221.59
2023-07-11T08:06:18.381Z,101222.44
2023-07-11T08:08:47.985Z,101208.47
2023-07-11T08:11:19.003Z,101206.59
2023-07-11T08:13:59.122Z,101215.81
2023-07-11T08:16:33.626Z,101210.91
2023-07-11T08:19:07.753Z,101215.53
2023-07-11T08:21:38.652Z,101204.66
2023-07-11T08:24:08.690Z,101205.25
2023-07-11T08:26:36.649Z,101207.09
2023-07-11T08:29:13.234Z,101204.94
2023-07-11T08:31:52.050Z,101196.47
2023-07-11T08:34:20.187Z,101200.63
2023-07-11T08:36:48.068Z,101198.72
2023-07-11T08:39:15.932Z,101198.78
2023-07-11T08:41:56.285Z,101192.38
2023-07-11T08:44:40.104Z,101193.38
2023-07-11T08:47:32.438Z,101191.13
2023-07-11T08:50:24.090Z,101193.47
2023-07-11T08:53:14.029Z,101185.41
2023-07-11T08:55:50.374Z,101184.59
2023-07-11T08:58:32.810Z,101192.59
2023-07-11T09:01:05.705Z,101185.13
2023-07-11T09:03:47.653Z,101184.66
2023-07-11T09:06:31.926Z,101181.78
2023-07-11T09:09:00.898Z,101182.97
2023-07-11T09:11:52.102Z,101174.06
2023-07-11T09:14:45.037Z,101169.16
2023-07-11T09:17:31.042Z,101168.72
2023-07-11T09:20:43.801Z,101172.50
2023-07-11T09:23:39.177Z,101176.28
2023-07-11T09:26:29.130Z,101167.63
2023-07-11T09:29:07.314Z,101170.88
2023-07-11T09:31:44.252Z,101165.16
2023-07-11T09:34:27.337Z,101164.53
2023-07-11T09:37:01.126Z,101156.94
2023-07-11T09:39:48.546Z,101158.97
2023-07-11T09:42:30.921Z,101158.53
2023-07-11T09:45:10.349Z,101159.38
2023-07-11T09:47:40.916Z,101161.09
2023-07-11T09:50:41.465Z,101149.53
2023-07-11T09:53:24.211Z,101160.28
2023-07-11T09:56:11.165Z,101153.97
2023-07-11T09:58:41.702Z,101147.22
2023-07-11T10:01:31.538Z,101152.34
2023-07-11T10:04:01.973Z,101145.88
2023-07-11T10:09:15.983Z,101146.94
2023-07-11T10:11:56.489Z,101142.56
2023-07-11T10:14:34.802Z,101129.91
2023-07-11T10:17:24.070Z,101136.00
2023-07-11T10:20:12.046Z,101127.16
2023-07-11T10:22:52.652Z,101131.63
2023-07-11T10:25:29.584Z,101117.09
2023-07-11T10:28:31.420Z,101127.78
2023-07-11T10:31:20.374Z,101126.41
2023-07-11T10:33:59.764Z,101122.13
2023-07-11T10:36:38.878Z,101126.53
2023-07-11T10:39:17.859Z,101116.38
2023-07-11T10:42:05.023Z,101120.97
2023-07-11T10:44:45.548Z,101122.16
2023-07-11T10:47:13.752Z,101112.38
2023-07-11T10:49:46.048Z,101106.94
2023-07-11T10:52:24.117Z,101114.59
2023-07-11T10:55:20.022Z,101100.75
2023-07-11T10:57:54.236Z,101101.41
2023-07-11T11:00:33.277Z,101096.13
2023-07-11T11:03:35.973Z,101092.13
2023-07-11T11:06:30.744Z,101089.75
2023-07-11T11:09:22.324Z,101097.94
2023-07-11T11:12:15.713Z,101101.16
2023-07-11T11:15:13.921Z,101089.13
2023-07-11T11:18:25.347Z,101087.44
2023-07-11T11:21:20.948Z,101084.72
2023-07-11T11:24:32.036Z,101086.06
2023-07-11T11:27:28.233Z,101073.19
2023-07-11T11:30:13.743Z,101079.81
2023-07-11T11:33:19.286Z,101080.31
2023-07-11T11:36:32.463Z,101076.59
2023-07-11T11:39:34.084Z,101073.03
2023-07-11T11:42:09.208Z,101067.09
2023-07-11T11:52:44.594Z,101063.00
2023-07-11T11:56:14.466Z,101055.50
2023-07-11T11:59:00.297Z,101054.28
2023-07-11T12:01:57.828Z,101053.38
2023-07-11T12:04:28.614Z,101044.47
2023-07-11T12:07:02.699Z,101044.78
2023-07-11T12:09:49.666Z,101041.75
2023-07-11T12:12:23.064Z,101045.97
2023-07-11T12:14:53.675Z,101050.41
2023-07-11T12:17:30.521Z,101038.31
2023-07-11T12:20:01.562Z,101030.81
2023-07-11T12:22:38.300Z,101032.16
2023-07-11T12:25:25.053Z,101026.03
2023-07-11T12:27:55.429Z,101025.31
2023-07-11T12:30:32.283Z,101030.06
2023-07-11T12:33:34.626Z,101014.28
2023-07-11T12:36:08.284Z,101020.44
2023-07-11T12:38:48.810Z,101008.50
2023-07-11T12:41:54.786Z,101015.16
2023-07-11T12:44:22.863Z,101016.13
2023-07-11T12:46:53.380Z,101005.84
2023-07-11T12:49:30.588Z,101004.91
2023-07-11T12:52:13.191Z,101000.22
2023-07-11T12:54:44.091Z,100998.09
2023-07-11T12:57:24.627Z,101001.44
2023-07-11T12:59:52.278Z,100987.09
2023-07-11T13:02:30.358Z,100990.97
2023-07-11T13:05:00.310Z,100991.69
2023-07-11T13:07:33.606Z,100985.91
2023-07-11T13:10:03.069Z,100989.06
2023-07-11T13:12:37.750Z,100977.59
2023-07-11T13:15:23.211Z,100979.00
2023-07-11T13:17:55.783Z,100970.75
2023-07-11T13:20:34.065Z,100967.94
2023-07-11T13:23:02.394Z,100964.31
2023-07-11T13:25:35.889Z,100959.81
2023-07-11T13:28:15.330Z,100961.31
2023-07-11T13:30:42.903Z,100961.97
2023-07-11T13:39:04.322Z,100958.63
2023-07-11T13:41:38.792Z,100950.81
2023-07-11T13:44:36.421Z,100940.81
2023-07-11T13:47:22.843Z,100938.56
2023-07-11T13:50:10.065Z,100939.72
2023-07-11T13:53:12.566Z,100943.97
2023-07-11T13:55:51.874Z,100940.19
2023-07-11T13:58:21.723Z,100930.31
2023-07-11T14:00:54.035Z,100932.38
2023-07-11T14:03:25.351Z,100929.56
2023-07-11T14:06:02.617Z,100931.81
2023-07-11T14:08:30.684Z,100928.25
2023-07-11T14:10:58.212Z,100923.28
2023-07-11T14:13:28.245Z,100925.50
2023-07-11T14:15:59.823Z,100914.72
2023-07-11T14:18:27.383Z,100919.72
2023-07-11T14:20:55.329Z,100922.38
2023-07-11T14:23:27.658Z,100914.16
2023-07-11T14:25:56.197Z,100919.41
2023-07-11T14:28:24.743Z,100911.34
2023-07-11T14:30:59.056Z,100905.41
2023-07-11T14:33:34.317Z,100908.78
2023-07-11T14:36:02.323Z,100906.94
2023-07-11T14:38:29.842Z,100907.78
2023-07-11T14:40:57.580Z,100903.91
2023-07-11T14:43:27.569Z,100894.34
2023-07-11T14:45:55.291Z,100901.41
2023-07-11T14:48:30.256Z,100897.63
2023-07-11T14:51:05.747Z,100896.66
2023-07-11T14:53:40.290Z,100887.53
2023-07-11T14:58:58.036Z,100890.41
2023-07-11T15:01:25.918Z,100880.13
2023-07-11T15:11:34.236Z,100878.19
2023-07-11T15:16:33.066Z,100879.97
2023-07-11T15:19:00.636Z,100878.84
2023-07-11T15:21:28.254Z,100866.09
2023-07-11T15:23:55.817Z,100863.16
2023-07-11T15:26:26.081Z,100860.53
2023-07-11T15:28:54.096Z,100866.25
2023-07-11T15:31:22.157Z,100855.84
2023-07-11T15:33:51.396Z,100857.44
2023-07-11T15:36:18.911Z,100856.59
2023-07-11T15:38:46.554Z,100847.84
2023-07-11T15:41:18.812Z,100842.88
2023-07-11T15:43:50.331Z,100843.44
2023-07-11T15:46:34.355Z,100834.34
2023-07-11T15:49:18.017Z,100832.44
2023-07-11T15:51:46.704Z,100829.41
2023-07-11T15:54:23.209Z,100832.53
2023-07-11T15:56:51.175Z,100837.03
2023-07-11T15:59:23.129Z,100834.53
2023-07-11T16:01:52.791Z,100826.63
2023-07-11T16:04:32.798Z,100825.03
2023-07-11T16:07:03.314Z,100817.06
2023-07-11T16:09:31.590Z,100825.78
2023-07-11T16:12:01.360Z,100819.41
2023-07-11T16:14:28.912Z,100807.94
2023-07-11T16:16:56.525Z,100810.28
2023-07-11T16:19:31.722Z,100815.25
2023-07-11T16:21:59.580Z,100816.19
2023-07-11T16:24:27.132Z,100809.97
2023-07-11T16:26:56.393Z,100809.03
2023-07-11T16:29:30.793Z,100808.53
2023-07-11T16:32:00.119Z,100809.38
2023-07-11T16:34:28.182Z,100803.28
2023-07-11T16:36:57.836Z,100808.44
2023-07-11T16:39:32.080Z,100804.69
2023-07-11T16:41:59.661Z,100804.88
2023-07-11T16:44:29.575Z,100798.41
2023-07-11T16:47:00.130Z,100801.31
2023-07-11T16:49:28.488Z,100800.81
2023-07-11T16:51:56.377Z,100799.94
2023-07-11T16:54:25.410Z,100791.78
2023-07-11T16:56:52.943Z,100792.34
2023-07-11T16:59:28.487Z,100777.81
2023-07-11T17:01:58.751Z,100782.75
2023-07-11T17:04:26.569Z,100780.31
2023-07-11T17:06:55.178Z,100775.84
2023-07-11T17:09:25.968Z,100774.28
2023-07-11T17:11:54.055Z,100776.66
2023-07-11T17:14:21.660Z,100767.66
2023-07-11T17:16:57.529Z,100768.84
2023-07-11T17:19:36.436Z,100766.19
2023-07-11T17:22:15.612Z,100764.38
2023-07-11T17:24:44.625Z,100767.84
2023-07-11T17:27:25.939Z,100762.34
2023-07-11T17:29:54.894Z,100759.78
2023-07-11T17:32:26.167Z,100759.06
2023-07-11T17:34:53.919Z,100754.09
2023-07-11T17:37:21.408Z,100743.31
2023-07-11T17:39:49.315Z,100745.41
2023-07-11T17:42:17.256Z,100743.25
2023-07-11T17:44:47.984Z,100738.97
2023-07-11T17:50:10.788Z,100736.22
2023-07-11T17:52:38.510Z,100731.00
2023-07-11T17:55:09.432Z,100744.97
2023-07-11T17:57:40.159Z,100742.72
2023-07-11T18:00:21.795Z,100729.41
2023-07-11T18:03:01.457Z,100721.22
2023-07-11T18:05:30.760Z,100717.31
2023-07-11T18:07:59.451Z,100715.78
2023-07-11T18:10:31.453Z,100715.97
2023-07-11T18:13:10.272Z,100719.94
2023-07-11T18:15:45.934Z,100701.03
2023-07-11T18:18:34.469Z,100705.66
2023-07-11T18:21:02.189Z,100699.19
2023-07-11T18:23:30.114Z,100703.47
2023-07-11T18:25:59.347Z,100695.75
2023-07-11T18:28:27.292Z,100692.03
2023-07-11T18:30:55.221Z,100686.44
2023-07-11T18:33:23.298Z,100690.63
2023-07-11T18:35:51.121Z,100686.50
2023-07-11T18:38:28.582Z,100681.19
2023-07-11T18:40:56.135Z,100679.66
2023-07-11T18:43:24.916Z,100685.50
2023-07-11T18:45:52.431Z,100685.63
2023-07-11T18:48:19.887Z,100673.38
2023-07-11T18:50:47.407Z,100674.50
2023-07-11T18:53:16.343Z,100663.09
2023-07-11T18:55:47.386Z,100669.75
2023-07-11T18:58:16.568Z,100664.53
2023-07-11T19:00:49.196Z,100668.50
2023-07-11T19:03:18.610Z,100669.56
2023-07-11T19:05:47.277Z,100671.81
2023-07-11T19:08:20.754Z,100662.25
2023-07-11T19:10:51.672Z,100661.91
2023-07-11T19:13:19.566Z,100659.72
2023-07-11T19:15:52.423Z,100660.22
2023-07-11T19:18:26.207Z,100662.56
2023-07-11T19:20:54.126Z,100658.69
2023-07-11T19:23:28.205Z,100661.88
2023-07-11T19:25:59.858Z,100660.63
2023-07-11T19:28:31.539Z,100667.31
2023-07-11T19:31:08.557Z,100670.19
2023-07-11T19:33:39.062Z,100672.19
2023-07-11T19:36:18.259Z,100669.50
2023-07-11T19:38:51.363Z,100666.25
2023-07-11T19:41:21.720Z,100680.81
2023-07-11T19:43:51.719Z,100694.13
2023-07-11T19:46:35.478Z,100702.06
2023-07-11T19:49:03.288Z,100715.06
2023-07-11T19:51:31.061Z,100720.03
2023-07-11T19:53:58.718Z,100727.66
2023-07-11T19:56:31.805Z,100736.97
2023-07-11T19:59:02.802Z,100732.88
2023-07-11T20:01:31.750Z,100740.38
2023-07-11T20:03:59.553Z,100737.81
2023-07-11T20:06:27.080Z,100738.09
2023-07-11T20:08:54.613Z,100741.06
2023-07-11T20:11:22.175Z,100738.50
2023-07-11T20:13:50.356Z,100751.22
2023-07-11T20:16:24.688Z,100748.66
2023-07-11T20:18:54.926Z,100740.19
2023-07-11T20:21:24.207Z,100739.59
2023-07-11T20:23:52.944Z,100761.22
2023-07-11T20:26:24.009Z,100773.94
2023-07-11T20:28:57.896Z,100770.69
2023-07-11T20:31:27.377Z,100745.03
2023-07-11T20:33:55.131Z,100747.03
2023-07-11T20:36:29.234Z,100746.44
2023-07-11T20:38:59.569Z,100763.09
2023-07-11T20:41:29.677Z,100767.88
2023-07-11T20:44:02.308Z,100766.44
2023-07-11T20:46:30.007Z,100774.91
2023-07-11T20:49:00.869Z,100767.63
2023-07-11T20:51:28.918Z,100756.13
2023-07-11T20:53:56.891Z,100769.00
2023-07-11T20:56:24.495Z,100784.56
2023-07-11T20:58:57.648Z,100779.78
2023-07-11T21:01:43.909Z,100773.69
2023-07-11T21:04:11.631Z,100762.31
2023-07-11T21:06:42.635Z,100748.41
2023-07-11T21:09:19.209Z,100759.75
2023-07-11T21:11:51.505Z,100779.50
2023-07-11T21:14:19.057Z,100781.22
2023-07-11T21:16:46.614Z,100795.38
2023-07-11T21:19:36.163Z,100799.66
2023-07-11T21:22:12.778Z,100779.78
2023-07-11T21:24:40.336Z,100782.94
2023-07-11T21:27:12.257Z,100784.16
2023-07-11T21:29:41.874Z,100780.03
2023-07-11T21:32:18.767Z,100785.63
2023-07-11T21:34:46.706Z,100797.56
2023-07-11T21:37:15.628Z,100796.09
2023-07-11T21:39:43.152Z,100798.16
2023-07-11T21:42:13.829Z,100797.53
2023-07-11T21:44:41.324Z,100800.47
2023-07-11T21:47:09.610Z,100797.97
2023-07-11T21:49:48.969Z,100792.78
2023-07-11T21:52:24.744Z,100803.72
2023-07-11T21:55:08.300Z,100822.81
2023-07-11T21:57:35.952Z,100840.09
2023-07-11T22:00:16.469Z,100826.19
2023-07-11T22:02:44.049Z,100810.00
2023-07-11T22:05:13.567Z,100789.38
2023-07-11T22:07:41.607Z,100808.31
2023-07-11T22:10:30.720Z,100810.22
2023-07-11T22:12:59.371Z,100822.97
2023-07-11T22:15:28.276Z,100796.28
2023-07-11T22:17:59.025Z,100788.19
2023-07-11T22:20:38.355Z,100798.94
2023-07-11T22:23:08.069Z,100782.94
2023-07-11T22:25:37.165Z,100791.59
2023-07-11T22:28:14.513Z,100802.63
2023-07-11T22:30:45.421Z,100790.44
2023-07-11T22:33:16.200Z,100778.25
2023-07-11T22:35:45.006Z,100801.47
2023-07-11T22:38:15.882Z,100805.94
2023-07-11T22:40:49.246Z,100789.16
2023-07-11T22:43:25.597Z,100799.09
2023-07-11T22:45:58.194Z,100790.34
2023-07-11T22:48:29.954Z,100806.38
2023-07-11T22:51:00.048Z,100811.84
2023-07-11T22:53:33.451Z,100809.25
2023-07-11T22:56:06.516Z,100798.66
2023-07-11T22:58:38.994Z,100798.66
2023-07-11T23:01:12.590Z,100794.38
2023-07-11T23:03:43.729Z,100795.56
2023-07-11T23:06:21.273Z,100795.56
2023-07-11T23:08:49.972Z,100792.34
2023-07-11T23:11:18.433Z,100792.47
2023-07-11T23:13:47.268Z,100801.53
2023-07-11T23:16:30.569Z,100805.19
2023-07-11T23:19:03.657Z,100797.59
2023-07-11T23:21:33.002Z,100815.75
2023-07-11T23:24:01.409Z,100805.28
2023-07-11T23:26:30.278Z,100796.72
2023-07-11T23:29:00.225Z,100792.47
2023-07-11T23:31:27.959Z,100794.28
2023-07-11T23:33:55.536Z,100805.06
2023-07-11T23:36:27.162Z,100799.06
2023-07-11T23:38:57.917Z,100795.66
2023-07-11T23:41:25.715Z,100784.34
2023-07-11T23:43:53.759Z,100780.06
2023-07-11T23:46:28.205Z,100775.88
2023-07-11T23:48:57.419Z,100781.66
2023-07-11T23:51:31.695Z,100773.88
2023-07-11T23:53:59.526Z,100769.78
2023-07-11T23:56:31.453Z,100770.94
2023-07-11T23:59:01.579Z,100773.94
